Time;durP1;ratioP1;P1;durP2;ratioP2;P2;SDS_P1;SDS_P2;PMS_P1;PMS_P2;Temp;Humidity;BMP_temperature;BMP_pressure;BME280_temperature;BME280_humidity;BME280_pressure;Samples;Min_cycle;Max_cycle;Signal;HPM_P1;HPM_P2
2022/03/05 00:00:20;;;;;;;22.87;9.83;;;-1.50;99.90;;;;;;4899174;29;20060;-85
2022/03/05 00:02:46;;;;;;;22.33;9.17;;;-1.50;99.90;;;;;;4899151;29;20404;-85
2022/03/05 00:05:13;;;;;;;19.03;8.90;;;-1.60;99.90;;;;;;4898479;29;20079;-85
2022/03/05 00:07:39;;;;;;;21.03;9.37;;;-1.70;99.90;;;;;;4899507;29;20055;-85
2022/03/05 00:10:05;;;;;;;19.60;8.67;;;-1.70;99.90;;;;;;4898494;29;20048;-85
2022/03/05 00:12:31;;;;;;;21.23;9.43;;;-1.70;99.90;;;;;;4899791;29;20511;-85
2022/03/05 00:14:56;;;;;;;21.47;8.80;;;-1.80;99.90;;;;;;4899227;29;20052;-85
2022/03/05 00:17:23;;;;;;;21.50;9.77;;;-1.80;99.90;;;;;;4898608;29;20044;-85
2022/03/05 00:19:48;;;;;;;20.60;8.93;;;-1.80;99.90;;;;;;4917923;29;20048;-85
2022/03/05 00:22:14;;;;;;;23.77;9.57;;;-1.80;99.90;;;;;;4899163;29;20492;-85
2022/03/05 00:24:39;;;;;;;22.10;9.60;;;-1.90;99.90;;;;;;4898977;29;20052;-85
2022/03/05 00:27:06;;;;;;;20.27;8.50;;;-1.90;99.90;;;;;;4899220;29;20568;-85
2022/03/05 00:29:31;;;;;;;21.77;9.40;;;-1.90;99.90;;;;;;4899275;29;20505;-85
2022/03/05 00:31:57;;;;;;;25.37;10.03;;;-1.90;99.90;;;;;;4900310;29;20083;-85
2022/03/05 00:34:22;;;;;;;20.53;9.47;;;-1.80;99.90;;;;;;4899169;29;20465;-85
2022/03/05 00:36:48;;;;;;;21.70;9.33;;;-1.90;99.90;;;;;;4916475;29;20139;-85
2022/03/05 00:39:13;;;;;;;19.37;8.57;;;-1.90;99.90;;;;;;4915758;29;20067;-85
2022/03/05 00:41:39;;;;;;;21.60;9.30;;;-1.90;99.90;;;;;;4916235;29;20044;-85
2022/03/05 00:44:05;;;;;;;20.07;9.00;;;-1.90;99.90;;;;;;4898912;29;20055;-85
2022/03/05 00:46:30;;;;;;;20.90;9.07;;;-1.90;99.90;;;;;;4898447;29;20063;-85
2022/03/05 00:48:56;;;;;;;19.50;8.77;;;-1.90;99.90;;;;;;4898939;29;20139;-85
2022/03/05 00:51:22;;;;;;;19.93;8.63;;;-2.00;99.90;;;;;;4898933;29;20044;-85
2022/03/05 00:53:47;;;;;;;20.27;8.67;;;-1.90;99.90;;;;;;4898440;29;20048;-85
2022/03/05 00:56:13;;;;;;;20.27;8.60;;;-1.90;99.90;;;;;;4899001;29;20377;-85
2022/03/05 00:58:38;;;;;;;20.80;8.60;;;-1.90;99.90;;;;;;4916311;29;20099;-84
2022/03/05 01:01:04;;;;;;;22.07;8.63;;;-2.00;99.90;;;;;;4914881;29;20100;-85
2022/03/05 01:03:29;;;;;;;17.90;8.20;;;-2.00;99.90;;;;;;4899231;29;20086;-84
2022/03/05 01:05:55;;;;;;;17.90;7.90;;;-2.00;99.90;;;;;;4899235;29;20052;-85
2022/03/05 01:08:21;;;;;;;19.40;8.70;;;-2.00;99.90;;;;;;4915143;29;20409;-85
2022/03/05 01:10:46;;;;;;;20.57;8.23;;;-2.00;99.90;;;;;;4899321;29;20051;-84
2022/03/05 01:13:12;;;;;;;18.17;8.63;;;-2.00;99.90;;;;;;4897654;29;20052;-84
2022/03/05 01:15:38;;;;;;;19.27;8.37;;;-2.00;99.90;;;;;;4898720;29;20083;-84
2022/03/05 01:18:03;;;;;;;20.13;8.07;;;-2.10;99.90;;;;;;4901597;29;20070;-84
2022/03/05 01:20:29;;;;;;;17.60;7.83;;;-2.00;99.90;;;;;;4901770;29;20512;-84
2022/03/05 01:22:55;;;;;;;18.87;8.67;;;-2.10;99.90;;;;;;4902560;29;20099;-84
2022/03/05 01:25:20;;;;;;;19.73;8.13;;;-2.10;99.90;;;;;;4902194;29;20073;-84
2022/03/05 01:27:46;;;;;;;20.67;9.00;;;-2.10;99.90;;;;;;4901779;29;20051;-84
2022/03/05 01:30:12;;;;;;;18.50;8.10;;;-2.10;99.90;;;;;;4901851;29;20059;-84
2022/03/05 01:32:38;;;;;;;18.93;8.13;;;-2.10;99.90;;;;;;4902057;29;20055;-84
2022/03/05 01:35:04;;;;;;;18.40;7.83;;;-2.10;99.90;;;;;;4901783;29;20052;-84
2022/03/05 01:37:30;;;;;;;20.17;7.97;;;-2.10;99.90;;;;;;4902254;29;20052;-85
2022/03/05 01:39:55;;;;;;;19.47;8.10;;;-2.10;99.90;;;;;;4902068;29;20052;-84
2022/03/05 01:42:22;;;;;;;18.00;7.57;;;-2.10;99.90;;;;;;4901235;29;20160;-84
2022/03/05 01:44:47;;;;;;;18.87;7.90;;;-2.20;99.90;;;;;;4901834;29;20052;-84
2022/03/05 01:47:13;;;;;;;18.63;7.77;;;-2.20;99.90;;;;;;4902061;29;20043;-84
2022/03/05 01:49:39;;;;;;;19.50;8.00;;;-2.20;99.90;;;;;;4901342;29;20123;-84
2022/03/05 01:52:05;;;;;;;18.30;7.33;;;-2.20;99.90;;;;;;4901763;29;20054;-84
2022/03/05 01:54:30;;;;;;;18.57;7.73;;;-2.20;99.90;;;;;;4902011;29;20066;-84
2022/03/05 01:56:57;;;;;;;15.50;7.20;;;-2.30;99.90;;;;;;4900980;29;20104;-84
2022/03/05 01:59:23;;;;;;;18.07;7.63;;;-2.30;99.90;;;;;;4901073;29;20127;-84
2022/03/05 02:01:49;;;;;;;18.93;7.80;;;-2.20;99.90;;;;;;4901560;29;20040;-84
2022/03/05 02:04:15;;;;;;;18.63;7.20;;;-2.30;99.90;;;;;;4900580;29;20155;-84
2022/03/05 02:06:41;;;;;;;17.47;7.03;;;-2.30;99.90;;;;;;4901777;29;20123;-84
2022/03/05 02:09:06;;;;;;;17.23;7.37;;;-2.30;99.90;;;;;;4901185;29;20050;-84
2022/03/05 02:11:32;;;;;;;18.20;7.60;;;-2.40;99.90;;;;;;4901079;29;20104;-84
2022/03/05 02:13:58;;;;;;;16.57;7.00;;;-2.40;99.90;;;;;;4928665;29;20111;-84
2022/03/05 02:16:23;;;;;;;18.13;6.73;;;-2.40;99.90;;;;;;4919060;29;20043;-84
2022/03/05 02:18:51;;;;;;;16.60;6.90;;;-2.40;99.90;;;;;;4937936;29;20531;-83
2022/03/05 02:21:17;;;;;;;19.83;7.23;;;-2.40;99.90;;;;;;4920422;29;20043;-83
2022/03/05 02:23:44;;;;;;;16.67;7.27;;;-2.40;99.90;;;;;;4919376;29;20039;-84
2022/03/05 02:26:10;;;;;;;17.23;7.40;;;-2.40;99.90;;;;;;4919956;29;20098;-84
2022/03/05 02:28:37;;;;;;;16.60;6.50;;;-2.40;99.90;;;;;;4919147;29;20444;-84
2022/03/05 02:31:04;;;;;;;17.73;7.20;;;-2.40;99.90;;;;;;4919261;29;20253;-84
2022/03/05 02:33:29;;;;;;;16.97;7.20;;;-2.40;99.90;;;;;;4919646;29;20079;-84
2022/03/05 02:35:55;;;;;;;18.27;6.73;;;-2.40;99.90;;;;;;4919930;29;20085;-84
2022/03/05 02:38:23;;;;;;;16.90;6.50;;;-2.40;99.90;;;;;;4918895;29;20051;-84
2022/03/05 02:40:50;;;;;;;17.87;6.73;;;-2.40;99.90;;;;;;4920094;29;20055;-84
2022/03/05 02:43:16;;;;;;;16.73;6.80;;;-2.40;99.90;;;;;;4919257;29;20444;-83
2022/03/05 02:45:43;;;;;;;16.33;6.13;;;-2.40;99.90;;;;;;4935751;29;20540;-84
2022/03/05 02:48:12;;;;;;;15.97;6.43;;;-2.40;99.90;;;;;;4919584;29;20039;-84
2022/03/05 02:50:38;;;;;;;17.40;6.57;;;-2.40;99.90;;;;;;4919529;29;20044;-84
2022/03/05 02:53:04;;;;;;;14.43;6.07;;;-2.40;99.90;;;;;;4918863;29;20055;-84
2022/03/05 02:55:31;;;;;;;17.93;6.23;;;-2.40;99.90;;;;;;4919415;29;20436;-84
2022/03/05 02:57:56;;;;;;;15.83;6.50;;;-2.50;99.90;;;;;;4919236;29;20411;-84
2022/03/05 03:00:22;;;;;;;17.10;6.73;;;-2.50;99.90;;;;;;4918236;29;20044;-84
2022/03/05 03:02:49;;;;;;;19.13;6.10;;;-2.50;99.90;;;;;;4919572;29;20043;-84
2022/03/05 03:05:16;;;;;;;14.57;5.87;;;-2.50;99.90;;;;;;4918561;29;20126;-84
2022/03/05 03:07:42;;;;;;;13.93;6.30;;;-2.50;99.90;;;;;;4919801;29;20048;-84
2022/03/05 03:10:10;;;;;;;17.33;6.20;;;-2.50;99.90;;;;;;4919060;29;20056;-84
2022/03/05 03:12:36;;;;;;;18.43;6.50;;;-2.50;99.90;;;;;;4918327;29;20489;-84
2022/03/05 03:15:03;;;;;;;16.70;6.03;;;-2.60;99.90;;;;;;4918828;29;20070;-84
2022/03/05 03:17:29;;;;;;;14.17;5.67;;;-2.60;99.90;;;;;;4918915;29;20052;-84
2022/03/05 03:19:55;;;;;;;18.70;7.17;;;-2.60;99.90;;;;;;4918566;29;20063;-84
2022/03/05 03:22:20;;;;;;;18.23;6.20;;;-2.60;99.90;;;;;;4918763;29;20048;-84
2022/03/05 03:24:46;;;;;;;16.10;6.57;;;-2.60;99.90;;;;;;4919274;29;20058;-84
2022/03/05 03:27:12;;;;;;;17.43;6.33;;;-2.60;99.90;;;;;;4917759;29;20075;-84
2022/03/05 03:29:37;;;;;;;15.73;5.93;;;-2.60;99.90;;;;;;4918700;29;20079;-84
2022/03/05 03:32:04;;;;;;;15.87;6.23;;;-2.60;99.90;;;;;;4918938;29;20488;-84
2022/03/05 03:34:30;;;;;;;17.73;6.63;;;-2.70;99.90;;;;;;4918081;29;20460;-84
2022/03/05 03:36:55;;;;;;;15.73;6.10;;;-2.70;99.90;;;;;;4918830;29;20067;-84
2022/03/05 03:39:21;;;;;;;18.27;6.70;;;-2.70;99.90;;;;;;4918508;29;20513;-84
2022/03/05 03:41:46;;;;;;;17.50;6.70;;;-2.70;99.90;;;;;;4917869;29;20047;-84
2022/03/05 03:44:12;;;;;;;18.23;7.03;;;-2.70;99.90;;;;;;4918588;29;20056;-84
2022/03/05 03:46:38;;;;;;;17.73;6.73;;;-2.70;99.90;;;;;;4918626;29;20036;-84
2022/03/05 03:49:04;;;;;;;16.77;6.37;;;-2.70;99.90;;;;;;4917874;29;20087;-84
2022/03/05 03:51:29;;;;;;;19.03;6.43;;;-2.70;99.90;;;;;;4918503;29;20504;-84
2022/03/05 03:53:55;;;;;;;17.53;6.70;;;-2.80;99.90;;;;;;4918744;29;20058;-84
2022/03/05 03:56:21;;;;;;;17.40;6.47;;;-2.70;99.90;;;;;;4917643;29;20054;-85
2022/03/05 03:58:46;;;;;;;15.73;6.97;;;-2.70;99.90;;;;;;4918310;29;20048;-85
2022/03/05 04:01:12;;;;;;;18.63;6.80;;;-2.70;99.90;;;;;;4918367;29;20039;-84
2022/03/05 04:03:37;;;;;;;17.40;6.77;;;-2.70;99.90;;;;;;4918070;29;20051;-84
2022/03/05 04:06:03;;;;;;;18.03;6.60;;;-2.70;99.90;;;;;;4918388;29;20048;-84
2022/03/05 04:08:44;;;;;;;15.37;6.57;;;-2.80;99.90;;;;;;4918381;29;20044;-84
2022/03/05 04:11:12;;;;;;;16.47;6.97;;;-2.80;99.90;;;;;;4917542;29;20084;-84
2022/03/05 04:13:38;;;;;;;15.23;6.17;;;-2.80;99.90;;;;;;4918256;29;20067;-84
2022/03/05 04:16:04;;;;;;;17.87;7.07;;;-2.80;99.90;;;;;;4917371;29;20512;-84
2022/03/05 04:18:30;;;;;;;15.17;5.90;;;-2.80;99.90;;;;;;4918510;29;20477;-84
2022/03/05 04:20:56;;;;;;;17.67;6.47;;;-2.80;99.90;;;;;;4918501;29;20457;-84
2022/03/05 04:23:22;;;;;;;18.87;7.30;;;-2.80;99.90;;;;;;4917141;29;20126;-84
2022/03/05 04:25:47;;;;;;;17.60;7.47;;;-2.70;99.90;;;;;;4918529;29;20048;-84
2022/03/05 04:28:13;;;;;;;17.13;6.73;;;-2.70;99.90;;;;;;4918065;29;20059;-84
2022/03/05 04:30:38;;;;;;;18.03;7.10;;;-2.80;99.90;;;;;;4916918;29;20047;-84
2022/03/05 04:33:04;;;;;;;16.33;6.60;;;-2.80;99.90;;;;;;4917952;29;20044;-84
2022/03/05 04:35:30;;;;;;;16.90;6.63;;;-2.80;99.90;;;;;;4918134;29;20103;-84
2022/03/05 04:37:55;;;;;;;19.47;6.97;;;-2.80;99.90;;;;;;4917546;29;20047;-85
2022/03/05 04:40:21;;;;;;;17.10;6.80;;;-2.70;99.90;;;;;;4918138;29;20048;-84
2022/03/05 04:42:47;;;;;;;18.73;7.50;;;-2.70;99.90;;;;;;4918188;29;20400;-85
2022/03/05 04:45:13;;;;;;;18.00;7.53;;;-2.70;99.90;;;;;;4917199;29;20102;-85
2022/03/05 04:47:40;;;;;;;19.23;7.40;;;-2.70;99.90;;;;;;4918424;29;20040;-85
2022/03/05 04:50:07;;;;;;;19.37;6.33;;;-2.70;99.90;;;;;;4917798;29;20102;-84
2022/03/05 04:52:33;;;;;;;18.77;7.47;;;-2.70;99.90;;;;;;4919282;29;20044;-84
2022/03/05 04:54:58;;;;;;;16.97;6.40;;;-2.70;99.90;;;;;;4921917;29;20051;-85
2022/03/05 04:57:24;;;;;;;17.13;7.23;;;-2.70;99.90;;;;;;4921671;29;20176;-84
2022/03/05 04:59:51;;;;;;;17.27;6.70;;;-2.70;99.90;;;;;;4920764;29;20407;-85
2022/03/05 05:02:17;;;;;;;19.33;6.87;;;-2.70;99.90;;;;;;4914565;29;20044;-84
2022/03/05 05:04:42;;;;;;;17.37;5.97;;;-2.60;99.90;;;;;;4934625;29;20035;-84
2022/03/05 05:07:08;;;;;;;17.37;6.20;;;-2.60;99.90;;;;;;4939032;29;20051;-84
2022/03/05 05:09:34;;;;;;;15.93;6.40;;;-2.60;99.90;;;;;;4940036;29;20050;-85
2022/03/05 05:11:59;;;;;;;19.93;6.37;;;-2.60;99.90;;;;;;4940352;29;20047;-84
2022/03/05 05:14:25;;;;;;;16.60;6.50;;;-2.60;99.90;;;;;;4938959;29;20118;-85
2022/03/05 05:16:50;;;;;;;16.07;6.00;;;-2.60;99.90;;;;;;4940180;29;20086;-84
2022/03/05 05:19:27;;;;;;;15.97;6.10;;;-2.60;99.90;;;;;;4939712;29;20054;-85
2022/03/05 05:22:01;;;;;;;16.17;6.40;;;-2.60;99.90;;;;;;4940272;29;20066;-85
2022/03/05 05:24:29;;;;;;;18.33;6.37;;;-2.60;99.90;;;;;;4939836;29;20126;-85
2022/03/05 05:26:56;;;;;;;15.30;6.10;;;-2.50;99.90;;;;;;4939485;29;20097;-84
2022/03/05 05:29:22;;;;;;;15.77;6.77;;;-2.50;99.90;;;;;;4921485;29;20052;-84
2022/03/05 05:31:49;;;;;;;15.83;6.63;;;-2.50;99.90;;;;;;4920764;29;20044;-86
2022/03/05 05:34:14;;;;;;;15.20;6.00;;;-2.50;99.90;;;;;;4919680;29;20463;-85
2022/03/05 05:36:41;;;;;;;15.47;5.70;;;-2.50;99.90;;;;;;4920715;29;20128;-85
2022/03/05 05:39:08;;;;;;;19.27;7.10;;;-2.60;99.90;;;;;;4920035;29;20130;-85
2022/03/05 05:41:34;;;;;;;15.33;6.57;;;-2.50;99.90;;;;;;4920046;29;20051;-88
2022/03/05 05:43:59;;;;;;;15.87;6.23;;;-2.50;99.90;;;;;;4920796;29;20147;-87
2022/03/05 05:46:25;;;;;;;18.83;6.57;;;-2.50;99.90;;;;;;4920184;29;20130;-87
2022/03/05 05:48:51;;;;;;;15.33;6.30;;;-2.60;99.90;;;;;;4920097;29;20047;-86
2022/03/05 05:51:16;;;;;;;17.97;6.37;;;-2.60;99.90;;;;;;4920606;29;20062;-87
2022/03/05 05:53:42;;;;;;;15.27;6.10;;;-2.60;99.90;;;;;;4920732;29;20574;-86
2022/03/05 05:56:09;;;;;;;14.57;5.97;;;-2.60;99.90;;;;;;4918887;29;20576;-86
2022/03/05 05:58:34;;;;;;;15.40;5.87;;;-2.60;99.90;;;;;;4920626;29;20548;-87
2022/03/05 06:01:00;;;;;;;17.67;6.10;;;-2.60;99.90;;;;;;4920438;29;20051;-86
2022/03/05 06:03:25;;;;;;;15.50;5.87;;;-2.60;99.90;;;;;;4919502;29;20052;-86
2022/03/05 06:05:51;;;;;;;15.50;6.37;;;-2.60;99.90;;;;;;4920659;29;20055;-87
2022/03/05 06:08:16;;;;;;;16.43;6.70;;;-2.70;99.90;;;;;;4919904;29;20051;-88
2022/03/05 06:10:42;;;;;;;15.97;6.37;;;-2.70;99.90;;;;;;4919666;29;20047;-90
2022/03/05 06:13:08;;;;;;;17.27;6.60;;;-2.70;99.90;;;;;;4919845;29;20062;-87
2022/03/05 06:15:33;;;;;;;16.30;6.43;;;-2.70;99.90;;;;;;4919368;29;20062;-85
2022/03/05 06:17:59;;;;;;;15.90;6.40;;;-2.70;99.90;;;;;;4920297;29;20139;-87
2022/03/05 06:20:24;;;;;;;16.27;6.70;;;-2.70;99.90;;;;;;4920250;29;20058;-88
2022/03/05 06:22:50;;;;;;;16.77;7.43;;;-2.70;99.90;;;;;;4919311;29;20054;-86
2022/03/05 06:25:19;;;;;;;15.90;6.37;;;-2.70;99.90;;;;;;4920040;29;20062;-86
2022/03/05 06:27:44;;;;;;;17.23;7.10;;;-2.50;99.90;;;;;;4920284;29;20051;-86
2022/03/05 06:30:12;;;;;;;16.87;6.60;;;-2.70;99.90;;;;;;4918501;29;20551;-88
2022/03/05 06:32:38;;;;;;;17.57;7.13;;;-2.70;99.90;;;;;;4920162;29;20043;-89
2022/03/05 06:35:05;;;;;;;14.87;6.30;;;-2.70;99.90;;;;;;4920411;29;20092;-88
2022/03/05 06:37:31;;;;;;;18.33;7.40;;;-2.70;99.90;;;;;;4919479;29;20040;-88
2022/03/05 06:39:58;;;;;;;18.07;6.67;;;-2.70;99.90;;;;;;4920106;29;20052;-88
2022/03/05 06:42:23;;;;;;;16.43;6.40;;;-2.70;99.90;;;;;;4938323;29;20107;-89
2022/03/05 06:44:49;;;;;;;14.67;6.00;;;-2.70;99.90;;;;;;4938082;29;20083;-89
2022/03/05 06:47:16;;;;;;;20.27;7.43;;;-1.30;99.90;;;;;;4937618;29;20054;-88
2022/03/05 06:49:42;;;;;;;17.37;7.37;;;-1.60;99.90;;;;;;4931962;29;20469;-89
2022/03/05 06:52:08;;;;;;;21.03;7.33;;;-2.50;99.90;;;;;;4917773;29;20139;-87
2022/03/05 06:54:33;;;;;;;18.23;7.30;;;-2.50;99.90;;;;;;4919789;29;20047;-87
2022/03/05 06:56:59;;;;;;;18.07;6.70;;;-1.50;99.90;;;;;;4919435;29;20531;-88
2022/03/05 06:59:25;;;;;;;20.63;7.07;;;-2.40;99.90;;;;;;4918582;29;20444;-87
2022/03/05 07:01:50;;;;;;;18.67;7.20;;;-1.10;99.90;;;;;;4919921;29;20044;-90
2022/03/05 07:04:16;;;;;;;19.30;7.40;;;-2.10;99.90;;;;;;4919486;29;20060;-89
2022/03/05 07:06:42;;;;;;;20.47;7.57;;;-1.90;99.90;;;;;;4919410;29;20075;-89
2022/03/05 07:09:07;;;;;;;17.47;7.73;;;-1.20;99.90;;;;;;4919177;29;20496;-90
2022/03/05 07:11:33;;;;;;;20.90;7.33;;;-2.10;99.90;;;;;;4919284;29;20511;-88
2022/03/05 07:13:59;;;;;;;17.47;6.90;;;-2.10;99.90;;;;;;4918313;29;20059;-90
2022/03/05 07:16:25;;;;;;;19.67;7.73;;;-2.10;99.90;;;;;;4918622;29;20048;-90
2022/03/05 07:18:51;;;;;;;18.77;7.77;;;-0.60;99.90;;;;;;4918663;29;20054;-90
2022/03/05 07:21:16;;;;;;;18.63;7.53;;;-1.10;99.90;;;;;;4918761;29;20048;-90
2022/03/05 07:23:42;;;;;;;19.20;8.37;;;-1.80;99.90;;;;;;4919234;29;20059;-90
2022/03/05 07:26:08;;;;;;;18.47;7.93;;;-3.00;99.90;;;;;;4918264;29;20383;-90
2022/03/05 07:28:33;;;;;;;20.43;8.90;;;-1.70;99.90;;;;;;4919239;29;20051;-91
2022/03/05 07:30:59;;;;;;;21.00;8.57;;;-1.30;99.90;;;;;;4919188;29;20055;-89
2022/03/05 07:33:26;;;;;;;22.67;8.97;;;-0.90;99.90;;;;;;4918672;29;20491;-89
2022/03/05 07:35:52;;;;;;;21.20;8.63;;;-1.50;99.90;;;;;;4919298;29;20063;-91
2022/03/05 07:38:18;;;;;;;21.90;9.33;;;-0.50;99.90;;;;;;4918237;29;20039;-91
2022/03/05 07:40:44;;;;;;;20.47;8.67;;;-1.40;99.90;;;;;;4918772;29;20043;-90
2022/03/05 07:43:12;;;;;;;19.53;8.63;;;-1.10;99.90;;;;;;4919529;29;20547;-92
2022/03/05 07:45:38;;;;;;;23.90;9.23;;;-1.20;99.90;;;;;;4919099;29;20134;-91
2022/03/05 07:48:04;;;;;;;18.50;8.23;;;-1.20;99.90;;;;;;4918697;29;20121;-91
2022/03/05 07:50:30;;;;;;;20.33;8.77;;;-1.20;99.90;;;;;;4919364;29;20051;-92
2022/03/05 07:52:55;;;;;;;17.23;8.17;;;-1.10;99.90;;;;;;4919747;29;20412;-91
2022/03/05 07:55:21;;;;;;;18.30;8.13;;;-1.00;99.90;;;;;;4918391;29;20048;-90
2022/03/05 07:57:47;;;;;;;20.53;9.07;;;-0.80;99.90;;;;;;4918917;29;20539;-90
2022/03/05 08:00:13;;;;;;;21.83;9.17;;;0.30;99.90;;;;;;4918337;29;20086;-90
2022/03/05 08:02:39;;;;;;;19.63;8.63;;;-0.80;99.90;;;;;;4918388;29;20074;-91
2022/03/05 08:05:05;;;;;;;21.17;8.47;;;0.30;99.90;;;;;;4918695;29;20039;-90
2022/03/05 08:07:31;;;;;;;23.10;9.47;;;-0.70;99.90;;;;;;4918562;29;20044;-91
2022/03/05 08:09:56;;;;;;;21.40;9.37;;;0.40;99.90;;;;;;4918076;29;20040;-93
2022/03/05 08:12:22;;;;;;;23.40;9.83;;;-0.50;99.90;;;;;;4920020;29;20050;-93
2022/03/05 08:14:48;;;;;;;19.10;9.03;;;0.20;99.90;;;;;;4919204;29;20043;-90
2022/03/05 08:17:14;;;;;;;23.00;9.50;;;-0.30;99.90;;;;;;4917505;29;20135;-90
2022/03/05 08:19:40;;;;;;;20.80;8.77;;;-0.30;99.90;;;;;;4918803;29;20135;-91
2022/03/05 08:22:06;;;;;;;22.63;9.63;;;-0.30;99.90;;;;;;4917780;29;20055;-90
2022/03/05 08:24:31;;;;;;;22.80;9.93;;;-0.30;99.90;;;;;;4935763;29;20048;-91
2022/03/05 08:26:57;;;;;;;21.23;9.13;;;-0.20;99.90;;;;;;4920071;29;20044;-91
2022/03/05 08:29:22;;;;;;;23.60;9.67;;;0.00;99.90;;;;;;4921858;29;20062;-91
2022/03/05 08:31:48;;;;;;;21.33;10.10;;;-0.10;99.90;;;;;;4939793;29;20044;-91
2022/03/05 08:34:13;;;;;;;22.33;8.73;;;0.00;99.90;;;;;;4923111;29;20106;-91
2022/03/05 08:36:39;;;;;;;23.03;9.50;;;0.20;99.90;;;;;;4922087;29;20395;-92
2022/03/05 08:39:05;;;;;;;24.80;10.27;;;0.20;99.90;;;;;;4923568;29;20082;-91
2022/03/05 08:41:30;;;;;;;21.90;10.33;;;0.30;99.90;;;;;;4922590;29;20047;-90
2022/03/05 08:43:56;;;;;;;23.20;9.40;;;0.30;99.90;;;;;;4921324;29;20158;-92
2022/03/05 08:46:21;;;;;;;21.83;9.97;;;0.50;99.90;;;;;;4921643;29;20051;-91
2022/03/05 08:48:47;;;;;;;22.57;9.97;;;0.50;99.90;;;;;;4922663;29;20051;-91
2022/03/05 08:51:13;;;;;;;22.80;10.27;;;0.60;99.90;;;;;;4927147;29;20083;-91
2022/03/05 08:53:38;;;;;;;25.07;10.17;;;0.80;99.90;;;;;;4927909;29;20551;-93
2022/03/05 08:56:04;;;;;;;23.10;10.50;;;0.80;99.90;;;;;;4921865;29;20048;-93
2022/03/05 08:58:30;;;;;;;23.10;9.83;;;1.60;99.90;;;;;;4921452;29;20047;-93
2022/03/05 09:00:59;;;;;;;23.27;9.67;;;1.00;99.90;;;;;;4922036;29;20059;-91
2022/03/05 09:03:25;;;;;;;24.33;11.13;;;1.10;99.90;;;;;;4922173;29;20048;-93
2022/03/05 09:05:51;;;;;;;22.63;10.27;;;1.10;99.90;;;;;;4922011;29;20047;-92
2022/03/05 09:08:16;;;;;;;24.70;10.23;;;1.20;99.90;;;;;;4922082;29;20135;-92
2022/03/05 09:10:42;;;;;;;21.77;10.33;;;1.30;99.90;;;;;;4922088;29;20083;-93
2022/03/05 09:13:08;;;;;;;24.50;10.47;;;1.40;99.90;;;;;;4916842;29;20060;-92
2022/03/05 09:15:34;;;;;;;25.07;10.73;;;1.40;99.90;;;;;;4903287;29;20052;-93
2022/03/05 09:18:00;;;;;;;23.60;9.97;;;1.50;99.90;;;;;;4902829;29;20493;-92
2022/03/05 09:20:26;;;;;;;25.27;11.50;;;0.90;99.90;;;;;;4902318;29;20048;-91
2022/03/05 09:22:52;;;;;;;24.83;11.33;;;1.60;99.90;;;;;;4902689;29;20057;-93
2022/03/05 09:25:18;;;;;;;26.57;10.67;;;1.70;99.90;;;;;;4903317;29;20044;-93
2022/03/05 09:27:44;;;;;;;23.00;10.70;;;1.70;99.90;;;;;;4904349;29;20507;-93
2022/03/05 09:30:11;;;;;;;23.87;10.77;;;1.90;99.90;;;;;;4904586;29;20048;-92
2022/03/05 09:32:37;;;;;;;26.23;10.90;;;1.90;99.90;;;;;;4905106;29;20052;-94
2022/03/05 09:35:03;;;;;;;25.30;11.07;;;1.90;99.90;;;;;;4905590;29;20111;-93
2022/03/05 09:37:30;;;;;;;21.93;10.63;;;2.00;99.90;;;;;;4904959;29;20508;-94
2022/03/05 09:39:57;;;;;;;22.63;10.20;;;2.00;99.90;;;;;;4903673;29;20469;-92
2022/03/05 09:42:23;;;;;;;22.77;10.17;;;2.10;99.90;;;;;;4902041;29;20052;-89
2022/03/05 09:44:48;;;;;;;22.73;10.10;;;2.20;99.90;;;;;;4902237;29;20048;-89
2022/03/05 09:47:15;;;;;;;24.00;10.63;;;2.30;99.90;;;;;;4900891;29;20055;-90
2022/03/05 09:49:40;;;;;;;22.63;10.70;;;2.30;99.90;;;;;;4902006;29;20055;-89
2022/03/05 09:52:07;;;;;;;23.43;10.43;;;2.40;99.90;;;;;;4902003;29;20508;-89
2022/03/05 09:54:32;;;;;;;24.37;10.13;;;2.50;99.90;;;;;;4901043;29;20052;-88
2022/03/05 09:56:58;;;;;;;22.60;9.97;;;2.60;99.90;;;;;;4901876;29;20050;-90
2022/03/05 09:59:24;;;;;;;25.17;10.73;;;2.60;99.90;;;;;;4902020;29;20115;-89
2022/03/05 10:01:51;;;;;;;23.73;11.27;;;2.70;99.90;;;;;;4901024;29;20044;-90
2022/03/05 10:04:24;;;;;;;23.80;10.13;;;2.70;99.90;;;;;;4901854;29;20044;-89
2022/03/05 10:07:09;;;;;;;24.17;10.23;;;2.90;99.90;;;;;;4902157;29;20048;-88
2022/03/05 10:09:36;;;;;;;24.80;9.90;;;3.00;99.90;;;;;;4900942;29;20618;-91
2022/03/05 10:12:02;;;;;;;21.73;10.00;;;3.20;99.90;;;;;;4901901;29;20063;-90
2022/03/05 10:14:27;;;;;;;24.20;10.90;;;3.30;99.90;;;;;;4901064;29;20488;-89
2022/03/05 10:17:04;;;;;;;25.93;11.03;;;3.30;99.90;;;;;;4901038;29;20171;-89
2022/03/05 10:19:29;;;;;;;22.93;10.70;;;3.40;99.90;;;;;;4901650;29;20067;-88
2022/03/05 10:21:55;;;;;;;24.40;11.10;;;3.50;99.90;;;;;;4900816;29;20048;-88
2022/03/05 10:24:30;;;;;;;22.93;10.60;;;3.60;99.90;;;;;;4901308;29;20052;-88
2022/03/05 10:26:57;;;;;;;21.40;10.47;;;3.80;99.90;;;;;;4902149;29;20504;-94
2022/03/05 10:29:25;;;;;;;22.40;10.17;;;3.80;99.90;;;;;;4901899;29;20131;-95
2022/03/05 10:32:08;;;;;;;24.83;11.07;;;4.00;99.90;;;;;;4911416;29;20048;-88
2022/03/05 10:34:48;;;;;;;23.77;11.07;;;4.20;99.90;;;;;;4902354;29;20072;-90
2022/03/05 10:37:13;;;;;;;23.20;10.87;;;4.30;99.90;;;;;;4900297;29;20056;-88
2022/03/05 10:39:39;;;;;;;25.20;10.87;;;4.40;99.90;;;;;;4904322;29;20048;-91
2022/03/05 10:42:22;;;;;;;24.00;10.10;;;4.60;99.90;;;;;;4902565;29;20051;-88
2022/03/05 10:45:04;;;;;;;24.33;11.30;;;4.60;99.90;;;;;;4900595;29;20491;-90
2022/03/05 10:47:42;;;;;;;21.00;10.33;;;4.70;99.90;;;;;;4901163;29;20103;-91
2022/03/05 10:50:21;;;;;;;24.33;11.47;;;4.80;99.90;;;;;;4899165;29;20052;-91
2022/03/05 10:52:52;;;;;;;23.23;11.63;;;5.00;99.90;;;;;;4901374;29;20046;-90
2022/03/05 10:55:23;;;;;;;23.60;11.27;;;5.00;99.90;;;;;;4900591;29;20044;-90
2022/03/05 10:57:59;;;;;;;24.47;11.50;;;5.20;99.90;;;;;;4900107;29;20040;-90
2022/03/05 11:00:25;;;;;;;25.23;12.30;;;5.50;99.90;;;;;;4891531;29;20044;-89
2022/03/05 11:02:51;;;;;;;23.07;11.20;;;5.60;99.90;;;;;;4888600;29;20103;-90
2022/03/05 11:05:20;;;;;;;27.10;12.13;;;5.60;99.90;;;;;;4888435;29;20501;-90
2022/03/05 11:07:48;;;;;;;22.83;11.60;;;6.00;99.90;;;;;;4889990;29;20048;-89
2022/03/05 11:10:15;;;;;;;25.03;11.87;;;6.00;99.90;;;;;;4888137;29;20052;-90
2022/03/05 11:12:43;;;;;;;22.80;11.33;;;6.20;99.90;;;;;;4888230;29;20559;-90
2022/03/05 11:15:09;;;;;;;26.50;11.67;;;6.30;99.90;;;;;;4907177;29;20110;-90
2022/03/05 11:17:34;;;;;;;22.47;10.90;;;6.40;99.90;;;;;;4906283;29;20052;-88
2022/03/05 11:20:03;;;;;;;25.87;12.47;;;6.40;99.90;;;;;;4906462;29;20036;-89
2022/03/05 11:22:29;;;;;;;24.17;11.93;;;6.50;99.90;;;;;;4904500;29;20040;-88
2022/03/05 11:24:55;;;;;;;22.53;11.37;;;6.70;99.90;;;;;;4904466;29;20464;-89
2022/03/05 11:27:21;;;;;;;24.20;11.83;;;6.80;99.90;;;;;;4909369;29;20091;-89
2022/03/05 11:29:55;;;;;;;24.67;12.40;;;8.20;99.90;;;;;;4904375;29;20039;-90
2022/03/05 11:32:22;;;;;;;24.33;11.97;;;7.00;99.90;;;;;;4905328;29;20044;-89
2022/03/05 11:34:49;;;;;;;22.57;11.47;;;7.10;99.90;;;;;;4907207;29;20134;-88
2022/03/05 11:37:33;;;;;;;24.70;12.37;;;7.00;99.90;;;;;;4905918;29;20044;-89
2022/03/05 11:40:00;;;;;;;26.60;13.27;;;7.20;99.90;;;;;;4914948;29;20075;-89
2022/03/05 11:42:32;;;;;;;24.20;11.93;;;7.20;99.90;;;;;;4905738;29;20457;-90
2022/03/05 11:45:01;;;;;;;23.00;12.77;;;7.20;99.90;;;;;;4906571;29;20058;-90
2022/03/05 11:47:32;;;;;;;24.67;12.90;;;7.30;99.90;;;;;;4908656;29;20046;-89
2022/03/05 11:49:58;;;;;;;23.90;12.77;;;7.40;99.90;;;;;;4908677;29;20051;-89
2022/03/05 11:52:39;;;;;;;25.57;12.60;;;7.50;99.90;;;;;;4906333;29;20103;-89
2022/03/05 11:55:13;;;;;;;22.07;12.63;;;8.50;99.90;;;;;;4899117;29;20052;-89
2022/03/05 11:57:50;;;;;;;24.47;12.50;;;7.80;99.90;;;;;;4888465;29;20123;-89
2022/03/05 12:00:24;;;;;;;25.70;13.27;;;7.90;99.90;;;;;;4895676;29;20521;-89
2022/03/05 12:02:50;;;;;;;24.27;12.07;;;7.80;99.90;;;;;;4900879;29;20047;-92
2022/03/05 12:05:38;;;;;;;23.90;12.53;;;8.80;99.90;;;;;;4900024;29;20055;-89
2022/03/05 12:08:30;;;;;;;26.37;12.77;;;7.90;99.90;;;;;;4900256;29;20059;-95
2022/03/05 12:11:13;;;;;;;28.67;13.77;;;8.80;99.90;;;;;;4900665;29;20060;-88
2022/03/05 12:14:07;;;;;;;25.20;12.00;;;8.20;99.90;;;;;;4899417;29;20056;-88
2022/03/05 12:16:32;;;;;;;24.77;13.05;;;8.70;99.90;;;;;;4897469;29;20052;-88
2022/03/05 12:18:59;;;;;;;24.90;13.63;;;9.00;99.90;;;;;;4899703;29;20047;-88
2022/03/05 12:21:33;;;;;;;26.53;13.27;;;8.30;99.90;;;;;;4900434;29;20044;-91
2022/03/05 12:24:09;;;;;;;27.63;13.63;;;8.50;99.90;;;;;;4907260;29;20048;-93
2022/03/05 12:26:55;;;;;;;26.73;13.87;;;9.30;99.90;;;;;;4914684;29;20103;-93
2022/03/05 12:29:21;;;;;;;27.90;13.77;;;8.70;99.90;;;;;;4900075;29;20445;-92
2022/03/05 12:31:50;;;;;;;26.33;13.10;;;8.80;99.90;;;;;;4903962;29;20073;-91
2022/03/05 12:34:24;;;;;;;25.63;13.63;;;8.80;99.90;;;;;;4906573;29;20052;-91
2022/03/05 12:36:50;;;;;;;26.90;13.33;;;8.60;99.90;;;;;;4899542;29;20083;-91